Latest Coastal Weather Observations for Port Macquarie Airport

IDN60701

Issued at 7:31 pm EDT Wednesday 7 December 2016 (issued every 10 minutes, with the page automatically refreshed every 10 minutes)

About coastal observations | Map of coastal stations | Coastal observations for NSW | Marine services | Other Formats
Station Details ID: 060139 Name: PORT MACQUARIE AIRPORT AWS Lat: -31.43 Lon: 152.87 Height: 4.2 m
Data from the previous 72 hours. | See also: Recent months at Port Macquarie Airport
Date/Time
EDT
Temp
°C
Wind Pressure Rain since
9am
mm
Weather Cloud Vis
km
Sea
Height
m
Swell
Dir  Spd
kts
Gust
kts
hPa Trend Height
m
Period
s
Dir
07/07:30pm 20.5 SW 5 7 1015.6 - 0.0 - Partly cloudy 10 - - - -
07/07:00pm 21.1 SE 5 9 1015.4 - 0.0 - Partly cloudy 10 - - - -
07/06:30pm 21.4 SE 5 7 1015.1 - 0.0 - Partly cloudy 10 - - - -
07/06:00pm 21.6 SE 7 10 1014.6 - 0.0 - Cloudy 10 - - - -
07/05:30pm 22.2 SSE 9 12 1014.4 - 0.0 - Partly cloudy 10 - - - -
07/05:00pm 22.5 SSE 10 14 1014.4 - 0.0 - Partly cloudy 10 - - - -
07/04:30pm 22.8 S 9 15 1014.3 - 0.0 - Partly cloudy 10 - - - -
07/04:00pm 23.2 S 10 14 1014.5 - 0.0 - Partly cloudy 10 - - - -
07/03:30pm 22.5 SSW 11 15 1014.7 - 0.0 - Partly cloudy 10 - - - -
07/03:00pm 22.8 SSW 11 15 1014.6 - 0.0 - Mostly cloudy 10 - - - -
07/02:30pm 23.1 SSW 9 15 1014.4 - 0.0 - Partly cloudy 10 - - - -
07/02:00pm 21.9 SSW 8 11 1014.4 - 0.0 - Partly cloudy 10 - - - -
07/01:30pm 21.5 SSW 10 14 1014.8 - 0.0 - Cloudy 10 - - - -
07/01:00pm 22.6 S 12 17 1014.7 - 0.0 - Cloudy 10 - - - -
07/12:30pm 21.8 S 10 14 1014.8 - 0.0 - Partly cloudy 10 - - - -
07/12:00pm 23.1 SSW 11 17 1014.7 - 0.0 - Cloudy 10 - - - -
07/11:30am 22.5 SSW 11 14 1014.7 - 0.0 - Partly cloudy 10 - - - -
07/11:00am 22.7 SSW 9 12 1014.6 - 0.0 - Partly cloudy 10 - - - -
07/10:30am 21.9 SW 9 11 1014.7 - 0.0 - Partly cloudy 10 - - - -
07/10:00am 21.8 SW 7 9 1014.7 - 0.0 - Cloudy 10 - - - -
07/09:30am 21.1 SW 6 8 1014.7 - 0.0 - Cloudy 10 - - - -
07/09:00am 20.6 SSW 8 13 1014.8 - 1.6 - Cloudy 10 - - - -
07/08:32am 19.9 SSW 11 16 1013.9 - 1.6 - Partly cloudy 10 - - - -
07/08:30am 20.0 SSW 11 17 1013.8 - 1.6 - Partly cloudy 10 - - - -
07/08:15am 20.2 S 10 14 1013.8 - 1.6 - Partly cloudy 10 - - - -
07/08:00am 20.6 SSW 9 12 1013.9 - 1.6 - Partly cloudy 10 - - - -
07/07:30am 20.4 SSW 6 8 1013.4 - 1.6 - Partly cloudy 10 - - - -
07/07:00am 20.4 WSW 4 6 1013.0 - 1.6 - Cloudy 10 - - - -
07/06:30am 20.2 SSW 6 7 1012.8 - 1.6 - Cloudy 10 - - - -
07/06:00am 20.5 SW 5 6 1012.6 - 1.6 - Cloudy 10 - - - -
07/05:30am 20.2 SSW 5 7 1012.2 - 1.6 - Cloudy 10 - - - -
07/05:00am 20.5 WSW 3 6 1011.8 - 1.6 - Cloudy 10 - - - -
07/04:30am 20.3 SE 2 3 1010.8 - 1.6 - Cloudy 10 - - - -
07/04:00am 20.3 CALM 0 0 1011.7 - 1.4 - Cloudy 10 - - - -
07/03:30am 20.4 SW 1 4 1011.7 - 1.4 - Cloudy 10 - - - -
07/03:00am 20.4 WNW 1 5 1012.0 - 1.0 - Cloudy 10 - - - -
07/02:30am 20.2 NNW 1 3 1011.7 - 1.0 - Cloudy 10 - - - -
07/02:00am 20.2 NW 3 4 1011.7 - 1.0 - Partly cloudy 10 - - - -
07/01:30am 20.1 S 1 3 1011.7 - 1.0 - Partly cloudy 10 - - - -
07/01:00am 20.2 SSE 3 5 1011.8 - 1.0 - Partly cloudy 10 - - - -
07/12:30am 20.4 WSW 2 4 1012.0 - 1.0 - Partly cloudy 10 - - - -
07/12:00am 20.4 SSW 6 8 1012.3 - 0.6 Rain Mostly cloudy 10 - - - -
 
Date/Time
EDT
Temp
°C
Wind Pressure Rain since
9am
mm
Weather Cloud Vis
km
Sea
Height
m
Swell
Dir  Spd
kts
Gust
kts
hPa Trend Height
m
Period
s
Dir
06/11:30pm 21.1 SW 7 9 1012.6 - 0.4 - Partly cloudy 10 - - - -
06/11:00pm 21.9 WSW 8 12 1012.9 - 0.4 - Partly cloudy 10 - - - -
06/10:30pm 22.2 SSW 6 12 1012.6 - 0.4 - Partly cloudy 10 - - - -
06/10:25pm 22.2 S 5 9 1012.5 - 0.4 - Partly cloudy 10 - - - -
06/10:12pm 22.5 S 9 15 1012.3 - 0.4 - Partly cloudy 10 - - - -
06/10:00pm 22.8 SW 7 9 1012.9 - 0.4 - Partly cloudy 8 - - - -
06/09:30pm 22.7 S 4 6 1012.1 - 0.4 - Partly cloudy 8 - - - -
06/09:03pm 22.6 S 7 9 1012.4 - 0.4 - Partly cloudy 7 - - - -
06/09:00pm 22.5 S 7 9 1012.5 - 0.4 - Cloudy 7 - - - -
06/08:30pm 22.6 SSE 6 8 1012.3 - 0.4 - Partly cloudy 6 - - - -
06/08:00pm 22.5 CALM 0 0 1011.6 - 0.4 - Cloudy 7 - - - -
06/07:30pm 22.4 S 6 10 1011.2 - 0.4 - Cloudy 8 - - - -
06/07:00pm 22.5 SSW 8 12 1010.8 - 0.2 - Cloudy 8 - - - -
06/06:30pm 22.4 S 11 17 1009.9 - 0.2 - Partly cloudy 8 - - - -
06/06:08pm 22.6 S 9 14 1009.9 - 0.2 - Partly cloudy 7 - - - -
06/06:00pm 22.6 S 9 13 1009.8 - 0.2 Rain - 8 - - - -
06/05:30pm 22.9 S 11 17 1009.4 - 0.0 - Partly cloudy 10 - - - -
06/05:00pm 23.6 SSE 11 16 1008.9 - 0.0 - - 10 - - - -
06/04:30pm 24.2 S 14 20 1008.4 - 0.0 - - 10 - - - -
06/04:00pm 25.4 S 14 19 1008.1 - 0.0 - - 10 - - - -
06/03:30pm 25.9 S 15 22 1008.2 - 0.0 - - 10 - - - -
06/03:00pm 25.9 SSE 14 19 1008.4 - 0.0 - Mostly clear 10 - - - -
06/02:30pm 25.8 S 11 14 1008.5 - 0.0 - - 10 - - - -
06/02:00pm 26.8 SSE 9 12 1008.8 - 0.0 - - 10 - - - -
06/01:30pm 25.8 SSE 12 15 1009.3 - 0.0 - - 10 - - - -
06/01:00pm 26.0 SSE 11 16 1009.4 - 0.0 - - 10 - - - -
06/12:30pm 25.8 SSE 10 13 1009.9 - 0.0 - - 10 - - - -
06/12:00pm 25.3 SSE 10 14 1010.2 - 0.0 - Partly cloudy 10 - - - -
06/11:30am 27.9 S 7 10 1009.7 - 0.0 - - 10 - - - -
06/11:00am 27.7 SSE 4 6 1009.5 - 0.0 - - 10 - - - -
06/10:30am 26.8 SSE 4 7 1009.8 - 0.0 - - 10 - - - -
06/10:00am 26.6 SSE 8 11 1010.1 - 0.0 - - 10 - - - -
06/09:30am 27.0 SSE 6 8 1010.3 - 0.0 - - 10 - - - -
06/09:00am 26.2 WSW 1 4 1010.3 - 29.8 - Mostly clear 10 - - - -
06/08:30am 25.6 NW 1 4 1010.4 - 29.8 - - 10 - - - -
06/08:00am 24.3 WNW 3 5 1010.3 - 29.8 - - 10 - - - -
06/07:30am 23.4 NNE 1 4 1010.0 - 29.8 - - 10 - - - -
06/07:00am 22.1 WNW 1 4 1009.9 - 29.8 - Partly cloudy 10 - - - -
06/06:30am 21.9 NNW 3 5 1009.8 - 29.8 - Partly cloudy 10 - - - -
06/06:00am 21.6 N 4 6 1010.0 - 29.8 Recent precip. Mostly clear 10 - - - -
06/05:30am 21.6 N 4 5 1010.2 - 29.6 - - 10 - - - -
06/05:00am 21.8 N 5 6 1009.8 - 29.6 - - 10 - - - -
06/04:30am 22.0 N 6 8 1009.6 - 29.6 - - 10 - - - -
06/04:00am 22.1 N 6 8 1009.9 - 29.6 - - 10 - - - -
06/03:30am 22.1 N 7 10 1010.0 - 29.6 - - 10 - - - -
06/03:00am 22.0 NNE 4 5 1010.1 - 29.6 - Cloudy 10 - - - -
06/02:30am 21.8 N 3 4 1010.8 - 29.6 - - 10 - - - -
06/02:00am 21.7 NNW 5 8 1010.9 - 29.6 - - 10 - - - -
06/01:30am 21.8 NNW 5 6 1011.0 - 29.6 - - 10 - - - -
06/01:00am 22.0 ENE 5 6 1011.4 - 29.6 - - 10 - - - -
06/12:30am 22.0 NE 4 6 1011.9 - 29.6 - - 10 - - - -
06/12:00am 21.4 NW 5 7 1013.5 - 29.6 - - 10 - - - -
 
Date/Time
EDT
Temp
°C
Wind Pressure Rain since
9am
mm
Weather Cloud Vis
km
Sea
Height
m
Swell
Dir  Spd
kts
Gust
kts
hPa Trend Height
m
Period
s
Dir
05/11:30pm 22.0 N 2 5 1013.0 - 29.6 - - 10 - - - -
05/11:06pm 21.8 NNW 8 11 1013.4 - 29.6 - Partly cloudy 10 - - - -
05/11:00pm 21.8 N 9 13 1013.5 - 29.6 - Partly cloudy 10 - - - -
05/10:59pm 21.6 N 10 15 1013.5 - 29.6 - Partly cloudy 10 - - - -
05/10:46pm 21.6 N 17 23 1012.2 - 29.6 - Partly cloudy 5 - - - -
05/10:38pm 22.1 NNW 12 23 1013.0 - 28.4 - Partly cloudy 4 - - - -
05/10:32pm 22.1 WNW 13 23 1015.3 - 27.0 - Partly cloudy 5 - - - -
05/10:30pm 22.1 W 13 23 1015.4 - 26.4 - Partly cloudy 7 - - - -
05/10:19pm 22.4 WNW 10 16 1014.7 - 24.4 - Partly cloudy 10 - - - -
05/10:00pm 22.0 NNW 9 12 1012.7 - 24.4 - Partly cloudy 10 - - - -
05/09:30pm 21.2 SW 3 4 1012.0 - 24.4 - - 10 - - - -
05/09:00pm 21.3 WNW 4 5 1010.8 - 24.4 - Cloudy 10 - - - -
05/08:30pm 21.3 WNW 6 9 1009.7 - 24.4 - - 10 - - - -
05/08:00pm 21.6 NNW 4 7 1009.3 - 24.4 - Partly cloudy 10 - - - -
05/07:30pm 21.6 NNE 6 9 1009.9 - 24.4 - Partly cloudy 9 - - - -
05/07:00pm 20.9 ENE 8 11 1009.9 - 24.0 - Partly cloudy 10 - - - -
05/06:47pm 20.5 E 10 15 1010.1 - 24.0 - Partly cloudy 10 - - - -
05/06:30pm 20.1 SSE 15 29 1010.5 - 23.4 - - 0.7 - - - -
05/06:29pm 20.0 SSE 16 29 1010.8 - 23.4 - - 0.6 - - - -
05/06:24pm 20.4 SSW 23 40 1011.5 - 19.6 - Partly cloudy 0.3 - - - -
05/06:22pm 20.3 SSW 25 40 1011.5 - 17.2 - Partly cloudy 0.3 - - - -
05/06:20pm 20.4 SW 27 40 1011.7 - 14.4 - Partly cloudy 0.4 - - - -
05/06:14pm 21.9 SW 29 45 1012.5 - 5.0 - Partly cloudy 2 - - - -
05/06:11pm 22.1 SW 28 45 1012.5 - 2.8 - Partly cloudy 5 - - - -
05/06:03pm 25.6 SSW 14 38 1010.4 - 1.4 - Partly cloudy 10 - - - -
05/06:02pm 25.9 S 11 26 1010.3 - 1.4 - Partly cloudy 10 - - - -
05/06:00pm 25.7 SSE 9 26 1009.8 - 1.4 Recent precip. Cloudy 10 - - - -
05/05:59pm 25.2 SE 8 22 1009.8 - 1.4 - Partly cloudy 10 - - - -
05/05:55pm 24.5 ESE 6 11 1008.0 - 1.4 - Partly cloudy 10 - - - -
05/05:37pm 27.0 NNW 4 7 1006.8 - 0.8 - Partly cloudy 5 - - - -
05/05:30pm 26.9 NE 6 10 1006.8 - 0.0 - Partly cloudy 10 - - - -
05/05:00pm 27.8 NE 5 7 1006.4 - 0.0 - - 10 - - - -
05/04:30pm 27.2 NE 9 13 1006.3 - 0.0 - - 10 - - - -
05/04:00pm 28.1 ENE 9 11 1006.3 - 0.0 - - 10 - - - -
05/03:30pm 28.5 ENE 11 14 1006.5 - 0.0 - - 10 - - - -
05/03:00pm 29.7 E 9 11 1007.1 - 0.0 - Mostly clear 10 - - - -
05/02:30pm 31.0 NE 7 10 1007.2 - 0.0 - - 10 - - - -
05/02:00pm 30.1 ENE 6 7 1007.8 - 0.0 - - 10 - - - -
05/01:30pm 29.5 ENE 6 8 1007.9 - 0.0 - - 10 - - - -
05/01:00pm 27.4 ENE 7 8 1008.3 - 0.0 - - 10 - - - -
05/12:30pm 27.4 ENE 8 10 1008.7 - 0.0 - - 10 - - - -
05/12:00pm 26.6 ENE 8 10 1009.1 - 0.0 - Mostly clear 10 - - - -
05/11:30am 29.0 ENE 9 11 1009.3 - 0.0 - - 10 - - - -
05/11:00am 29.1 ENE 10 12 1009.6 - 0.0 - - 10 - - - -
05/10:30am 29.6 ESE 7 9 1009.8 - 0.0 - - 10 - - - -
05/10:00am 30.1 NNE 9 11 1009.7 - 0.0 - - 10 - - - -
05/09:30am 28.3 N 7 10 1010.3 - 0.0 - - 10 - - - -
05/09:00am 27.3 N 9 11 1010.4 - 0.0 - Mostly clear 10 - - - -
05/08:30am 26.2 N 9 11 1010.7 - 0.0 - - 10 - - - -
05/08:00am 25.1 N 7 11 1010.9 - 0.0 - - 10 - - - -
05/07:30am 24.0 N 8 10 1011.4 - 0.0 - Partly cloudy 10 - - - -
05/07:00am 23.2 N 9 12 1011.4 - 0.0 - Partly cloudy 10 - - - -
05/06:57am 23.2 N 9 11 1011.4 - 0.0 - Partly cloudy 10 - - - -
05/06:30am 22.9 N 9 11 1011.5 - 0.0 - Cloudy 10 - - - -
05/06:00am 22.9 N 13 17 1011.4 - 0.0 - Cloudy 10 - - - -
05/05:30am 23.0 N 11 14 1011.1 - 0.0 - Cloudy 10 - - - -
05/05:00am 22.9 N 11 16 1010.9 - 0.0 - Cloudy 10 - - - -
05/04:30am 22.8 N 11 14 1010.9 - 0.0 - Cloudy 10 - - - -
05/04:00am 22.5 N 11 14 1011.0 - 0.0 - Cloudy 10 - - - -
05/03:30am 22.2 N 8 11 1011.3 - 0.0 - Cloudy 10 - - - -
05/03:00am 21.9 NNE 9 14 1011.4 - 0.0 - Cloudy 10 - - - -
05/02:58am 21.9 NNE 9 13 1011.5 - 0.0 - Partly cloudy 10 - - - -
05/02:30am 21.9 N 8 11 1012.0 - 0.0 - Partly cloudy 10 - - - -
05/02:13am 22.0 NNE 8 11 1012.1 - 0.0 - Partly cloudy 10 - - - -
05/02:00am 21.9 NNE 8 11 1012.3 - 0.0 - Partly cloudy 10 - - - -
05/01:33am 21.9 NNE 8 10 1012.7 - 0.0 - Partly cloudy 9 - - - -
05/01:30am 21.8 NNE 8 11 1012.6 - 0.0 - Partly cloudy 9 - - - -
05/01:08am 21.8 N 8 10 1012.8 - 0.0 - Partly cloudy 9 - - - -
05/01:00am 21.8 N 8 11 1012.9 - 0.0 - Partly cloudy 9 - - - -
05/12:30am 21.8 N 7 9 1013.4 - 0.0 - Partly cloudy 10 - - - -
05/12:03am 21.6 NNE 7 8 1013.5 - 0.0 - Partly cloudy 10 - - - -
05/12:00am 21.7 NNE 7 8 1013.6 - 0.0 - Partly cloudy 10 - - - -
 
Date/Time
EDT
Temp
°C
Wind Pressure Rain since
9am
mm
Weather Cloud Vis
km
Sea
Height
m
Swell
Dir  Spd
kts
Gust
kts
hPa Trend Height
m
Period
s
Dir
04/11:30pm 21.6 N 6 7 1013.8 - 0.0 - - 10 - - - -
04/11:00pm 21.8 N 7 9 1014.0 - 0.0 - - 10 - - - -
04/10:38pm 21.9 N 5 6 1014.2 - 0.0 - Partly cloudy 10 - - - -
04/10:30pm 22.0 N 6 7 1014.2 - 0.0 - Partly cloudy 10 - - - -
04/10:00pm 22.3 N 7 8 1014.2 - 0.0 - Partly cloudy 10 - - - -
04/09:50pm 22.4 N 7 8 1014.2 - 0.0 - Partly cloudy 10 - - - -
04/09:30pm 22.4 N 5 7 1014.3 - 0.0 - - 10 - - - -
04/09:00pm 22.0 N 4 5 1014.3 - 0.0 - - 10 - - - -
04/08:30pm 22.9 NNE 6 7 1014.3 - 0.0 - - 10 - - - -
04/08:00pm 23.2 NNE 5 7 1014.4 - 0.0 - - 10 - - - -

Other Formats:

Comma delimited format used in spreadsheet applications
http://www.bom.gov.au/fwo/IDN60701/IDN60701.94786.axf

JavaScript Object Notation format (JSON) in row-major order
http://www.bom.gov.au/fwo/IDN60701/IDN60701.94786.json